首页
METAR-TAF:

METAR-TAF

机场 :

伯其拉, 法国

纬度: 44-49N, 经度: 000-31E, 海拔: 51米

当前天气观测

该预报发布于28分钟前的03:00 UTC
风速2节,风向多变
温度 5°C
湿度 100%
气压 1009 hPa
能見度: 3500
阴天层高于300英尺
轻雾

METAR: LFBE 170300Z AUTO VRB02KT 3500 BR OVC003 05/05 Q1009

时间: 04:28 (03:28 UTC)

预报

该预报发布于10小时和28分钟前的17:00 UTC
预报有效从16日的 18点(UTC)到 17日的 18点(UTC)
风速8节,风向西南
能见度10公里或以上
多云层高于4000英尺
短暂存在
从 16日的 18点(UTC)到 16日的 20点(UTC)
多云层高于1000英尺
成为
从 16日的 21点(UTC)到 16日的 23点(UTC)
风速2节,风向多变
能見度: 4000
多云层高于700英尺
轻雾
几率 40%
从 17日的 00点(UTC)到 17日的 10点(UTC)
能見度: 0500
成为
从 17日的 10点(UTC)到 17日的 12点(UTC)
能见度10公里或以上
多云层高于2000英尺

TAF: LFBE 161700Z 1618/1718 23008KT 9999 BKN040 TEMPO 1618/1620 BKN010 BECMG 1621/1623 VRB02KT 4000 BR BKN007 PROB40 1700/1710 0500 FG VV/// BECMG 1710/1712 9999 NSW BKN020

超过4000个机场的气象观测和天气预报(METAR&TAF报告)。

可查询的气象台以黄色和红色小点在地图上表示。

将鼠标移到小点上方,可查看气象台名称。

然后点击查看天气观测和预报。

如需切换地图:点击带黑十字的绿色按钮放大地图;点击带横线的绿色按钮缩小地图;或者点击绿色箭头查看邻近地区的地图。


METAR-TAF: